Arlington, Wyoming
Current Conditions -  °F | °C
As of 1:55 AM on Friday 24 Oct 2014 (Local Time) from KEHY Reporting Station
Clear Clear  
Wind Chill: 13°   Ceiling: Unl
Heat Index: 13°   Visibility: 10mi
Dew Point: -5°   Wind: 30mph
Humidity: 28%   Direction: 230°SW
Pressure: 30.15"   Gusts: 39mph
Location:  41.6691°N, 106.011°W
Report Text: KEHY 240755Z AUTO 23026G34KT 10SM CLR 13/M05 A3015 RMK AO2
Loading
Personal Weather Stations






























Interactive Weather Map
Tropical Storm Tracking
New forecast layout! Learn more

10-Day Weather Forecast

Advertisements
Track Severe Weather on mobile